Time;durP1;ratioP1;P1;durP2;ratioP2;P2;SDS_P1;SDS_P2;PMS_P1;PMS_P2;Temp;Humidity;BMP_temperature;BMP_pressure;BME280_temperature;BME280_humidity;BME280_pressure;Samples;Min_cycle;Max_cycle;Signal;HPM_P1;HPM_P2
2022/07/05 00:00:15;;;;;;;4.43;1.20;;;20.00;88.40;;;;;;5052347;28;20090;-73
2022/07/05 00:02:41;;;;;;;7.00;1.58;;;19.90;89.30;;;;;;5052415;28;20081;-72
2022/07/05 00:05:06;;;;;;;7.03;1.45;;;19.80;89.60;;;;;;5052434;28;20459;-73
2022/07/05 00:07:32;;;;;;;6.57;1.58;;;19.70;89.80;;;;;;5052241;28;20033;-74
2022/07/05 00:09:58;;;;;;;5.40;1.75;;;19.60;90.30;;;;;;5052901;28;20342;-73
2022/07/05 00:12:32;;;;;;;7.85;2.55;;;19.60;90.50;;;;;;5052269;28;20434;-74
2022/07/05 00:15:00;;;;;;;4.55;1.30;;;19.60;90.40;;;;;;5051706;28;20029;-75
2022/07/05 00:17:26;;;;;;;5.00;1.30;;;19.50;90.60;;;;;;5052165;28;20052;-75
2022/07/05 00:19:52;;;;;;;7.20;1.70;;;19.40;90.80;;;;;;5051960;28;20045;-74
2022/07/05 00:22:17;;;;;;;6.93;1.23;;;19.40;90.80;;;;;;5051949;28;20406;-75
2022/07/05 00:24:44;;;;;;;7.72;1.25;;;19.40;90.50;;;;;;5051198;28;20068;-73
2022/07/05 00:27:10;;;;;;;2.80;1.30;;;19.30;90.90;;;;;;5052119;28;20040;-73
2022/07/05 00:29:36;;;;;;;1.98;1.15;;;19.30;91.00;;;;;;5051943;28;20041;-75
2022/07/05 00:32:01;;;;;;;4.32;1.50;;;19.30;91.20;;;;;;5052224;28;20025;-73
2022/07/05 00:34:27;;;;;;;5.60;1.40;;;19.20;91.30;;;;;;5051836;28;20110;-74
2022/07/05 00:36:53;;;;;;;3.17;1.30;;;19.20;91.20;;;;;;5052083;28;20360;-73
2022/07/05 00:39:18;;;;;;;6.30;1.30;;;19.20;91.10;;;;;;5051501;28;20033;-74
2022/07/05 00:41:44;;;;;;;7.22;1.73;;;19.10;91.30;;;;;;5051755;28;20048;-74
2022/07/05 00:44:11;;;;;;;4.13;1.75;;;19.00;91.90;;;;;;5051582;28;20086;-74
2022/07/05 00:46:38;;;;;;;4.03;1.30;;;18.90;92.10;;;;;;5051364;28;20035;-75
2022/07/05 00:49:05;;;;;;;6.68;1.38;;;19.00;91.80;;;;;;5051978;28;20033;-74
2022/07/05 00:51:34;;;;;;;4.22;1.42;;;19.00;91.90;;;;;;5051327;28;20040;-75
2022/07/05 00:54:00;;;;;;;8.02;1.80;;;18.90;92.10;;;;;;5051301;28;20482;-74
2022/07/05 00:56:26;;;;;;;5.97;1.60;;;18.90;92.10;;;;;;5051456;28;20115;-73
2022/07/05 00:58:54;;;;;;;4.20;1.45;;;18.90;92.30;;;;;;5051167;28;20416;-74
2022/07/05 01:01:20;;;;;;;7.57;1.53;;;18.80;92.40;;;;;;5051361;28;20363;-74
2022/07/05 01:03:46;;;;;;;3.63;1.13;;;18.70;92.50;;;;;;5051568;28;20051;-75
2022/07/05 01:06:12;;;;;;;5.80;1.50;;;18.70;92.80;;;;;;5051265;28;20328;-74
2022/07/05 01:08:40;;;;;;;5.60;1.40;;;18.60;92.70;;;;;;5051193;28;20116;-74
2022/07/05 01:11:07;;;;;;;3.40;1.00;;;18.60;92.80;;;;;;5050042;28;20124;-73
2022/07/05 01:13:34;;;;;;;4.13;1.52;;;18.60;92.50;;;;;;5051147;28;20032;-73
2022/07/05 01:16:00;;;;;;;5.05;1.55;;;18.50;93.00;;;;;;5051393;28;20047;-73
2022/07/05 01:18:27;;;;;;;3.30;1.45;;;18.50;92.90;;;;;;5051031;28;20036;-73
2022/07/05 01:20:54;;;;;;;3.65;1.13;;;18.40;93.20;;;;;;5050840;28;20033;-74
2022/07/05 01:23:20;;;;;;;3.03;1.10;;;18.30;93.20;;;;;;5050894;28;20037;-73
2022/07/05 01:25:47;;;;;;;2.70;1.02;;;18.30;93.20;;;;;;5050616;28;20447;-74
2022/07/05 01:28:14;;;;;;;5.85;1.38;;;18.20;93.40;;;;;;5050100;28;20032;-74
2022/07/05 01:30:41;;;;;;;5.05;1.20;;;18.20;93.60;;;;;;5051115;28;20025;-74
2022/07/05 01:33:08;;;;;;;4.90;1.20;;;18.20;93.10;;;;;;5051020;28;20025;-75
2022/07/05 01:35:34;;;;;;;6.20;1.75;;;18.20;93.60;;;;;;5056788;28;20261;-74
2022/07/05 01:38:00;;;;;;;5.70;1.33;;;18.10;93.70;;;;;;5070647;28;20469;-74
2022/07/05 01:40:27;;;;;;;6.03;1.20;;;18.20;93.60;;;;;;5070350;28;20040;-74
2022/07/05 01:42:53;;;;;;;2.30;1.10;;;18.10;93.80;;;;;;5070978;28;20066;-75
2022/07/05 01:48:11;;;;;;;6.90;1.58;;;18.00;93.90;;;;;;5070263;28;20097;-73
2022/07/05 01:50:43;;;;;;;5.53;1.98;;;18.00;93.80;;;;;;5070354;28;20485;-73
2022/07/05 01:53:18;;;;;;;2.53;1.25;;;18.00;93.70;;;;;;5070218;28;20078;-73
2022/07/05 01:55:44;;;;;;;3.47;1.30;;;18.00;94.10;;;;;;5070504;28;20094;-72
2022/07/05 01:58:11;;;;;;;2.17;1.48;;;17.90;94.20;;;;;;5070317;28;20039;-72
2022/07/05 02:00:45;;;;;;;5.60;1.33;;;17.90;94.20;;;;;;5069533;28;20040;-72
2022/07/05 02:03:12;;;;;;;3.40;1.40;;;17.90;94.30;;;;;;5070565;28;20032;-73
2022/07/05 02:05:38;;;;;;;7.35;1.48;;;17.90;94.40;;;;;;5070385;28;20029;-73
2022/07/05 02:08:04;;;;;;;4.32;1.23;;;17.80;94.20;;;;;;5070274;28;20043;-75
2022/07/05 02:10:30;;;;;;;9.88;1.73;;;17.80;94.50;;;;;;5070065;28;20024;-74
2022/07/05 02:12:56;;;;;;;4.82;1.40;;;17.80;94.40;;;;;;5070519;28;20371;-74
2022/07/05 02:15:21;;;;;;;5.85;1.55;;;17.90;94.10;;;;;;5069029;28;20140;-74
2022/07/05 02:17:47;;;;;;;4.05;1.58;;;17.80;94.50;;;;;;5070115;28;20039;-74
2022/07/05 02:20:13;;;;;;;4.03;1.50;;;17.70;94.60;;;;;;5070132;28;20328;-73
2022/07/05 02:22:38;;;;;;;5.22;1.48;;;17.70;94.70;;;;;;5070302;28;20359;-73
2022/07/05 02:25:05;;;;;;;5.40;1.20;;;17.70;94.70;;;;;;5070410;28;20028;-73
2022/07/05 02:27:30;;;;;;;6.85;2.13;;;17.60;94.90;;;;;;5070107;28;20024;-75
2022/07/05 02:29:56;;;;;;;9.15;1.50;;;17.60;94.60;;;;;;5069910;28;20367;-75
2022/07/05 02:32:21;;;;;;;4.05;1.65;;;17.60;94.70;;;;;;5069952;28;20336;-74
2022/07/05 02:34:47;;;;;;;5.60;1.77;;;17.50;94.70;;;;;;5070166;28;20029;-74
2022/07/05 02:37:13;;;;;;;3.88;1.58;;;17.50;94.90;;;;;;5070217;28;20078;-74
2022/07/05 02:39:38;;;;;;;4.65;1.48;;;17.40;95.10;;;;;;5072888;28;20441;-74
2022/07/05 02:42:04;;;;;;;4.90;1.42;;;17.50;94.80;;;;;;5073941;28;20032;-74
2022/07/05 02:44:30;;;;;;;5.57;1.73;;;17.60;95.10;;;;;;5072776;28;20038;-74
2022/07/05 02:46:55;;;;;;;5.10;1.55;;;17.50;95.10;;;;;;5073890;28;20037;-74
2022/07/05 02:49:21;;;;;;;7.50;1.98;;;17.50;95.20;;;;;;5072865;28;20090;-74
2022/07/05 02:51:47;;;;;;;5.18;1.30;;;17.60;95.10;;;;;;5074220;28;20025;-73
2022/07/05 02:54:12;;;;;;;4.70;1.48;;;17.60;95.10;;;;;;5072462;28;20105;-73
2022/07/05 02:56:38;;;;;;;2.42;1.50;;;17.60;94.80;;;;;;5072665;28;20060;-74
2022/07/05 02:59:05;;;;;;;6.47;1.42;;;17.60;95.10;;;;;;5073567;28;20373;-74
2022/07/05 03:01:31;;;;;;;6.88;1.85;;;17.60;95.00;;;;;;5073481;28;20025;-73
2022/07/05 03:03:58;;;;;;;5.15;1.63;;;17.60;95.00;;;;;;5073997;28;20514;-74
2022/07/05 03:06:24;;;;;;;5.43;1.42;;;17.60;94.70;;;;;;5072513;28;20033;-73
2022/07/05 03:08:50;;;;;;;3.65;1.55;;;17.60;95.10;;;;;;5073564;28;20455;-74
2022/07/05 03:11:15;;;;;;;8.00;1.85;;;17.50;95.10;;;;;;5073349;28;20073;-73
2022/07/05 03:13:42;;;;;;;2.50;1.58;;;17.50;95.20;;;;;;5073468;28;20178;-73
2022/07/05 03:16:07;;;;;;;8.13;1.83;;;17.60;95.10;;;;;;5073494;28;20131;-73
2022/07/05 03:18:33;;;;;;;6.65;1.50;;;17.50;95.10;;;;;;5073688;28;20107;-73
2022/07/05 03:20:59;;;;;;;4.63;1.52;;;17.50;95.20;;;;;;5073305;28;20044;-73
2022/07/05 03:23:24;;;;;;;3.83;1.35;;;17.50;95.40;;;;;;5073109;28;20131;-73
2022/07/05 03:25:50;;;;;;;6.03;1.73;;;17.40;95.50;;;;;;5073107;28;20402;-74
2022/07/05 03:28:15;;;;;;;7.65;1.80;;;17.40;95.60;;;;;;5073459;28;20047;-74
2022/07/05 03:30:41;;;;;;;4.35;1.63;;;17.50;95.50;;;;;;5073355;28;20043;-72
2022/07/05 03:33:07;;;;;;;4.50;1.70;;;17.50;95.40;;;;;;5072917;28;20032;-73
2022/07/05 03:35:33;;;;;;;3.08;1.63;;;17.50;95.40;;;;;;5072861;28;20470;-75
2022/07/05 03:37:58;;;;;;;5.93;1.85;;;17.60;95.20;;;;;;5072820;28;20039;-74
2022/07/05 03:40:24;;;;;;;3.15;1.45;;;17.60;95.30;;;;;;5072496;28;20036;-73
2022/07/05 03:42:49;;;;;;;7.32;1.65;;;17.60;95.60;;;;;;5073375;28;20425;-74
2022/07/05 03:45:15;;;;;;;7.03;1.67;;;17.60;95.40;;;;;;5072608;28;20115;-74
2022/07/05 03:47:41;;;;;;;4.43;1.60;;;17.70;95.50;;;;;;5072673;28;20093;-72
2022/07/05 03:50:07;;;;;;;7.70;2.10;;;17.70;95.60;;;;;;5071654;28;20106;-73
2022/07/05 03:52:32;;;;;;;3.40;1.50;;;17.70;95.60;;;;;;5072303;28;20120;-74
2022/07/05 03:54:58;;;;;;;4.00;1.70;;;17.70;95.70;;;;;;5072956;28;20486;-74
2022/07/05 03:57:24;;;;;;;5.95;1.80;;;17.70;95.50;;;;;;5071242;28;20116;-74
2022/07/05 03:59:50;;;;;;;5.68;2.05;;;17.70;95.60;;;;;;5072454;28;20086;-74
2022/07/05 04:02:15;;;;;;;6.75;2.50;;;17.70;95.50;;;;;;5072425;28;20120;-75
2022/07/05 04:04:41;;;;;;;5.95;2.40;;;17.80;95.70;;;;;;5072338;28;20335;-73
2022/07/05 04:07:07;;;;;;;9.13;1.85;;;17.80;95.70;;;;;;5072403;28;20048;-72
2022/07/05 04:09:33;;;;;;;9.18;2.15;;;17.80;95.90;;;;;;5072931;28;20025;-74
2022/07/05 04:11:58;;;;;;;8.60;2.60;;;17.80;95.90;;;;;;5072248;28;20060;-74
2022/07/05 04:14:24;;;;;;;3.25;1.80;;;17.80;95.80;;;;;;5072153;28;20090;-74
2022/07/05 04:16:50;;;;;;;4.78;1.70;;;17.90;95.70;;;;;;5070886;28;20033;-73
2022/07/05 04:19:16;;;;;;;3.35;2.20;;;17.90;95.80;;;;;;5070849;28;20052;-75
2022/07/05 04:21:41;;;;;;;7.38;2.03;;;17.90;95.80;;;;;;5072643;28;20013;-74
2022/07/05 04:24:08;;;;;;;4.43;1.70;;;18.00;96.00;;;;;;5071997;28;20082;-74
2022/07/05 04:26:33;;;;;;;11.02;2.40;;;18.00;95.90;;;;;;5071929;28;20021;-74
2022/07/05 04:28:59;;;;;;;7.95;1.98;;;18.00;96.00;;;;;;5071869;28;20508;-74
2022/07/05 04:31:25;;;;;;;10.27;2.47;;;18.00;96.00;;;;;;5071782;28;20028;-75
2022/07/05 04:33:50;;;;;;;7.57;1.90;;;18.00;96.00;;;;;;5072357;28;20036;-74
2022/07/05 04:36:16;;;;;;;8.73;2.10;;;18.20;95.70;;;;;;5071736;28;20033;-74
2022/07/05 04:38:42;;;;;;;6.05;2.30;;;18.20;95.90;;;;;;5071523;28;20076;-74
2022/07/05 04:41:07;;;;;;;7.68;2.88;;;18.30;95.40;;;;;;5071433;28;20024;-74
2022/07/05 04:43:34;;;;;;;5.72;2.42;;;18.30;95.70;;;;;;5071517;28;20029;-74
2022/07/05 04:46:00;;;;;;;13.98;3.70;;;18.40;95.80;;;;;;5072184;28;20059;-74
2022/07/05 04:48:26;;;;;;;8.25;3.22;;;18.50;95.30;;;;;;5071707;28;20025;-74
2022/07/05 04:50:51;;;;;;;10.85;2.97;;;18.50;95.70;;;;;;5071640;28;20052;-74
2022/07/05 04:53:17;;;;;;;11.43;3.00;;;18.50;95.60;;;;;;5071192;28;20053;-74
2022/07/05 04:55:43;;;;;;;10.50;3.17;;;18.40;95.70;;;;;;5071445;28;20028;-74
2022/07/05 04:58:08;;;;;;;8.65;2.13;;;18.30;95.80;;;;;;5071140;28;20021;-73
2022/07/05 05:00:34;;;;;;;6.03;2.38;;;18.50;95.50;;;;;;5071402;28;20020;-75
2022/07/05 05:03:00;;;;;;;7.68;2.75;;;18.50;95.60;;;;;;5070504;28;20458;-75
2022/07/05 05:05:26;;;;;;;10.98;2.28;;;18.50;95.50;;;;;;5071139;28;20032;-74
2022/07/05 05:07:51;;;;;;;8.38;2.50;;;18.60;95.40;;;;;;5071225;28;20024;-74
2022/07/05 05:10:17;;;;;;;7.25;2.28;;;18.70;95.10;;;;;;5071129;28;20020;-73
2022/07/05 05:12:43;;;;;;;6.90;2.65;;;18.80;95.00;;;;;;5070279;28;20029;-74
2022/07/05 05:15:09;;;;;;;11.45;2.90;;;18.80;95.00;;;;;;5071049;28;20052;-74
2022/07/05 05:17:40;;;;;;;11.50;3.20;;;18.60;95.30;;;;;;5070837;28;20509;-74
2022/07/05 05:20:11;;;;;;;10.43;3.08;;;18.50;95.40;;;;;;5069834;28;20044;-74
2022/07/05 05:22:37;;;;;;;4.45;2.75;;;18.60;95.30;;;;;;5069837;28;20055;-74
2022/07/05 05:25:03;;;;;;;9.00;2.75;;;18.70;95.20;;;;;;5071124;28;20418;-75
2022/07/05 05:27:29;;;;;;;7.53;2.85;;;18.70;95.10;;;;;;5070782;28;20037;-74
2022/07/05 05:29:55;;;;;;;12.70;3.15;;;18.70;95.20;;;;;;5070587;28;20036;-74
2022/07/05 05:32:20;;;;;;;10.85;3.10;;;18.80;95.10;;;;;;5070696;28;20478;-74
2022/07/05 05:34:46;;;;;;;7.28;3.45;;;18.90;94.90;;;;;;5070504;28;20036;-74
2022/07/05 05:37:12;;;;;;;7.15;3.63;;;19.00;95.00;;;;;;5070730;28;20240;-74
2022/07/05 05:39:37;;;;;;;14.00;3.80;;;18.90;95.10;;;;;;5069629;28;20021;-73
2022/07/05 05:42:03;;;;;;;8.57;3.72;;;18.90;95.00;;;;;;5070357;28;20032;-76
2022/07/05 05:44:29;;;;;;;9.25;2.83;;;19.00;95.00;;;;;;5070287;28;20032;-75
2022/07/05 05:46:55;;;;;;;7.50;3.30;;;19.00;95.00;;;;;;5070615;28;20021;-75
2022/07/05 05:49:21;;;;;;;11.55;3.53;;;19.10;95.00;;;;;;5070610;28;20043;-75
2022/07/05 05:51:46;;;;;;;9.82;3.47;;;19.00;95.20;;;;;;5071193;28;20025;-76
2022/07/05 05:54:12;;;;;;;6.97;3.35;;;19.10;95.10;;;;;;5070776;28;20055;-75
2022/07/05 05:56:40;;;;;;;9.88;2.67;;;19.10;95.00;;;;;;5070433;28;20350;-76
2022/07/05 05:59:06;;;;;;;6.68;2.95;;;19.20;94.90;;;;;;5070346;28;20446;-75
2022/07/05 06:01:32;;;;;;;6.15;2.95;;;19.20;94.70;;;;;;5070232;28;20146;-74
2022/07/05 06:04:04;;;;;;;9.63;2.50;;;19.30;94.50;;;;;;5071338;28;20035;-81
2022/07/05 06:06:29;;;;;;;8.30;2.40;;;19.30;94.40;;;;;;5070799;28;20370;-80
2022/07/05 06:08:55;;;;;;;8.38;2.22;;;19.30;94.20;;;;;;5070509;28;20024;-73
2022/07/05 06:11:21;;;;;;;6.07;2.30;;;19.30;94.10;;;;;;5069953;28;20123;-73
2022/07/05 06:13:46;;;;;;;8.38;2.22;;;19.20;93.90;;;;;;5069608;28;20048;-73
2022/07/05 06:16:12;;;;;;;8.65;2.67;;;19.30;94.00;;;;;;5070177;28;20065;-74
2022/07/05 06:18:38;;;;;;;5.63;2.20;;;19.30;94.00;;;;;;5070504;28;20104;-72
2022/07/05 06:21:07;;;;;;;7.75;2.50;;;19.40;94.10;;;;;;5069880;28;20426;-73
2022/07/05 06:23:32;;;;;;;11.27;2.97;;;19.50;94.00;;;;;;5070181;28;20419;-72
2022/07/05 06:25:58;;;;;;;9.48;2.30;;;19.50;93.70;;;;;;5070229;28;20048;-72
2022/07/05 06:28:23;;;;;;;9.80;2.10;;;19.50;93.40;;;;;;5069888;28;20033;-72
2022/07/05 06:30:49;;;;;;;7.55;2.35;;;19.50;93.30;;;;;;5070664;28;20029;-71
2022/07/05 06:33:15;;;;;;;9.07;2.55;;;19.50;92.80;;;;;;5070031;28;20081;-73
2022/07/05 06:35:41;;;;;;;5.40;2.22;;;19.60;92.60;;;;;;5069974;28;20021;-71
2022/07/05 06:38:09;;;;;;;5.70;1.67;;;19.60;92.00;;;;;;5069982;28;20395;-72
2022/07/05 06:40:41;;;;;;;3.47;1.48;;;19.60;91.40;;;;;;5069708;28;20101;-73
2022/07/05 06:43:09;;;;;;;6.47;1.40;;;19.70;91.20;;;;;;5069429;28;20051;-72
2022/07/05 06:45:34;;;;;;;6.57;1.93;;;19.80;90.50;;;;;;5070542;28;20442;-70
2022/07/05 06:48:09;;;;;;;3.88;1.50;;;19.80;90.30;;;;;;5070424;28;20035;-74
2022/07/05 06:50:40;;;;;;;5.85;1.65;;;19.80;90.20;;;;;;5071081;28;20044;-73
2022/07/05 06:53:06;;;;;;;4.88;1.50;;;19.80;90.00;;;;;;5070315;28;20044;-75
2022/07/05 06:55:32;;;;;;;4.03;1.52;;;19.80;89.60;;;;;;5070072;28;20036;-73
2022/07/05 06:58:00;;;;;;;5.78;1.40;;;19.70;89.00;;;;;;5070565;28;20031;-75
2022/07/05 07:00:26;;;;;;;;;;;19.60;88.00;;;;;;5053838;28;20061;-74
2022/07/05 07:02:52;;;;;;;3.55;1.05;;;19.60;87.80;;;;;;5050296;28;20322;-75
2022/07/05 07:05:18;;;;;;;2.17;0.80;;;19.80;87.40;;;;;;5049991;28;20116;-75
2022/07/05 07:10:28;;;;;;;3.22;1.05;;;20.00;86.10;;;;;;5050513;28;20087;-77
2022/07/05 07:12:53;;;;;;;3.70;1.35;;;19.90;85.20;;;;;;5050604;28;20096;-76
2022/07/05 07:15:19;;;;;;;3.92;0.95;;;20.00;85.00;;;;;;5049881;28;20033;-75
2022/07/05 07:17:45;;;;;;;2.90;1.23;;;20.10;84.60;;;;;;5048905;28;20112;-74
2022/07/05 07:20:11;;;;;;;2.63;1.00;;;20.40;84.70;;;;;;5048439;28;20383;-75
2022/07/05 07:22:37;;;;;;;4.00;1.25;;;20.40;82.90;;;;;;5049842;28;20060;-75
2022/07/05 07:25:05;;;;;;;2.20;1.02;;;20.50;83.00;;;;;;5051237;28;20242;-75
2022/07/05 07:27:31;;;;;;;6.47;1.10;;;20.40;82.50;;;;;;5051667;28;20037;-73
2022/07/05 07:29:57;;;;;;;2.08;1.08;;;20.40;82.20;;;;;;5053517;28;20378;-74
2022/07/05 07:32:22;;;;;;;3.40;1.38;;;20.30;82.60;;;;;;5053274;28;20029;-76
2022/07/05 07:34:48;;;;;;;3.42;1.33;;;20.30;83.00;;;;;;5052869;28;20051;-72
2022/07/05 07:37:14;;;;;;;4.85;1.27;;;20.40;83.10;;;;;;5052772;28;20328;-76
2022/07/05 07:39:40;;;;;;;2.67;1.17;;;20.40;81.90;;;;;;5051893;28;20035;-72
2022/07/05 07:42:07;;;;;;;2.50;1.10;;;20.60;78.70;;;;;;5052772;28;20181;-74
2022/07/05 07:44:33;;;;;;;4.13;1.30;;;20.60;79.40;;;;;;5052900;28;20057;-74
2022/07/05 07:46:59;;;;;;;5.25;0.90;;;20.50;78.90;;;;;;5053027;28;20068;-74
2022/07/05 07:49:24;;;;;;;4.70;1.00;;;20.80;77.80;;;;;;5052767;28;20116;-74
2022/07/05 07:51:51;;;;;;;2.03;1.30;;;20.90;77.70;;;;;;5053279;28;20116;-74
2022/07/05 07:54:17;;;;;;;3.55;1.20;;;20.90;77.80;;;;;;5052861;28;20072;-75
2022/07/05 07:56:43;;;;;;;18.45;2.15;;;21.00;77.00;;;;;;5052981;28;20060;-75
2022/07/05 07:59:10;;;;;;;40.25;3.22;;;21.10;77.00;;;;;;5051571;28;20037;-74
2022/07/05 08:01:35;;;;;;;28.75;4.13;;;21.10;75.60;;;;;;5051708;28;20036;-74
2022/07/05 08:04:01;;;;;;;12.25;1.50;;;21.20;76.10;;;;;;5052769;28;20021;-76
2022/07/05 08:06:27;;;;;;;6.70;1.50;;;21.40;76.00;;;;;;5051153;28;20032;-74
2022/07/05 08:08:53;;;;;;;2.97;1.20;;;21.70;75.80;;;;;;5052260;28;20057;-74
2022/07/05 08:11:19;;;;;;;4.63;1.33;;;22.00;75.60;;;;;;5052225;28;20033;-74
2022/07/05 08:13:44;;;;;;;3.15;1.27;;;22.30;72.70;;;;;;5052012;28;20088;-72
2022/07/05 08:16:11;;;;;;;5.78;1.38;;;22.70;73.30;;;;;;5052141;28;20049;-72
2022/07/05 08:21:38;;;;;;;6.03;1.15;;;23.50;67.00;;;;;;5052190;28;20402;-72
2022/07/05 08:24:12;;;;;;;2.15;0.85;;;24.20;65.40;;;;;;5052088;28;20043;-70
2022/07/05 08:26:38;;;;;;;1.95;0.90;;;24.90;62.30;;;;;;5051562;28;20382;-72
2022/07/05 08:29:07;;;;;;;3.92;0.70;;;25.40;62.60;;;;;;5051747;28;20063;-72
2022/07/05 08:31:45;;;;;;;2.15;0.90;;;25.20;59.60;;;;;;5051943;28;20387;-73
2022/07/05 08:34:11;;;;;;;0.68;0.60;;;25.90;60.90;;;;;;5051799;28;20021;-72
2022/07/05 08:36:37;;;;;;;2.25;0.90;;;26.80;57.90;;;;;;5051784;28;20028;-74
2022/07/05 08:39:04;;;;;;;2.55;1.20;;;26.60;56.30;;;;;;5051599;28;20036;-74
2022/07/05 08:41:32;;;;;;;1.98;1.73;;;26.70;55.80;;;;;;5051727;28;20103;-75
2022/07/05 08:43:59;;;;;;;4.43;0.77;;;27.60;56.40;;;;;;5050670;28;20033;-72
2022/07/05 08:46:29;;;;;;;5.03;1.50;;;27.80;53.50;;;;;;5051799;28;20089;-73
2022/07/05 08:48:58;;;;;;;3.10;0.90;;;27.30;54.80;;;;;;5050861;28;20032;-74
2022/07/05 08:51:23;;;;;;;2.63;0.90;;;27.80;53.90;;;;;;5051592;28;20478;-75
2022/07/05 08:53:52;;;;;;;4.82;1.00;;;28.40;52.90;;;;;;5051454;28;20140;-74
2022/07/05 08:56:19;;;;;;;3.13;1.23;;;29.10;52.00;;;;;;5050335;28;20033;-72
2022/07/05 08:58:44;;;;;;;1.05;0.80;;;28.80;50.40;;;;;;5043015;28;20037;-74
2022/07/05 09:01:11;;;;;;;2.55;1.10;;;28.10;50.40;;;;;;5050881;28;20086;-73
2022/07/05 09:03:43;;;;;;;1.03;0.70;;;26.70;50.60;;;;;;5052979;28;20085;-72
2022/07/05 09:06:12;;;;;;;4.90;1.00;;;26.50;52.00;;;;;;5051713;28;20168;-74
2022/07/05 09:08:40;;;;;;;5.30;3.50;;;26.50;52.90;;;;;;5051560;28;20431;-72
2022/07/05 09:11:12;;;;;;;4.65;1.00;;;27.10;52.60;;;;;;5052856;28;20060;-72
2022/07/05 09:13:40;;;;;;;2.75;1.10;;;27.30;51.50;;;;;;5053620;28;20040;-75
2022/07/05 09:16:06;;;;;;;5.50;3.72;;;27.30;50.90;;;;;;5056898;28;20021;-76
2022/07/05 09:18:45;;;;;;;2.58;0.80;;;27.50;51.40;;;;;;5055739;28;20103;-75
2022/07/05 09:21:15;;;;;;;4.68;1.35;;;27.60;51.00;;;;;;5051662;28;20043;-73
2022/07/05 09:23:42;;;;;;;3.80;1.13;;;26.80;51.30;;;;;;5052476;28;20037;-73
2022/07/05 09:26:08;;;;;;;5.47;1.38;;;26.40;52.60;;;;;;5053108;28;20131;-73
2022/07/05 09:28:34;;;;;;;5.03;1.25;;;26.00;53.80;;;;;;5051087;28;20143;-73
2022/07/05 09:31:00;;;;;;;1.85;0.73;;;26.20;53.70;;;;;;5051703;28;20479;-76
2022/07/05 09:33:25;;;;;;;3.78;0.90;;;26.00;53.20;;;;;;5051046;28;20043;-76
2022/07/05 09:35:57;;;;;;;5.05;0.90;;;25.60;53.60;;;;;;5049850;28;20028;-76
2022/07/05 09:38:24;;;;;;;5.57;1.20;;;25.50;52.80;;;;;;5051158;28;20065;-74
2022/07/05 09:40:58;;;;;;;5.37;1.17;;;25.50;53.20;;;;;;5050203;28;20048;-69
2022/07/05 09:43:28;;;;;;;3.97;1.15;;;25.20;52.80;;;;;;5050787;28;20479;-70
2022/07/05 09:46:04;;;;;;;2.95;0.85;;;25.40;52.60;;;;;;5051796;28;20090;-69
2022/07/05 09:48:32;;;;;;;3.90;0.70;;;25.50;52.60;;;;;;5050227;28;20584;-70
2022/07/05 09:51:09;;;;;;;1.30;0.95;;;25.40;53.30;;;;;;5051066;28;20036;-70
2022/07/05 09:53:52;;;;;;;3.08;0.52;;;25.20;52.60;;;;;;5050641;28;20057;-69
2022/07/05 09:56:18;;;;;;;4.07;1.17;;;25.20;53.50;;;;;;5050601;28;20080;-69
2022/07/05 09:58:45;;;;;;;1.52;0.80;;;24.90;54.00;;;;;;5051194;28;20041;-74
2022/07/05 10:01:23;;;;;;;5.78;0.90;;;25.10;54.00;;;;;;5050386;28;20024;-76
2022/07/05 10:03:54;;;;;;;1.58;0.75;;;25.00;53.90;;;;;;5050194;28;20533;-70
2022/07/05 10:06:23;;;;;;;1.25;0.73;;;25.10;53.10;;;;;;5050714;28;20139;-71
2022/07/05 10:08:49;;;;;;;4.22;1.10;;;25.40;52.70;;;;;;5050468;28;20048;-71
2022/07/05 10:11:17;;;;;;;6.15;0.80;;;25.40;52.40;;;;;;5050509;28;20048;-72
2022/07/05 10:13:51;;;;;;;2.47;0.80;;;25.20;52.00;;;;;;5049192;28;20025;-71
2022/07/05 10:16:18;;;;;;;1.45;0.80;;;24.80;53.00;;;;;;5050866;28;20068;-71
2022/07/05 10:18:46;;;;;;;6.70;1.10;;;25.10;52.00;;;;;;5050910;28;20104;-72
2022/07/05 10:21:16;;;;;;;1.23;0.80;;;24.90;52.00;;;;;;5050372;28;20270;-71
2022/07/05 10:23:46;;;;;;;3.63;1.00;;;24.80;52.20;;;;;;5049043;28;20332;-70
2022/07/05 10:26:14;;;;;;;3.20;0.95;;;24.90;52.30;;;;;;5050430;28;20044;-69
2022/07/05 10:28:40;;;;;;;3.97;1.00;;;24.90;52.90;;;;;;5050386;28;20037;-69
2022/07/05 10:31:09;;;;;;;2.22;0.90;;;24.90;53.30;;;;;;5050752;28;20018;-71
2022/07/05 10:33:35;;;;;;;1.85;1.00;;;24.60;53.70;;;;;;5050400;28;20037;-70
2022/07/05 10:36:05;;;;;;;3.28;0.70;;;24.60;53.70;;;;;;5050481;28;20029;-70
2022/07/05 10:38:36;;;;;;;1.30;0.60;;;24.50;52.90;;;;;;5050299;28;20552;-70
2022/07/05 10:41:05;;;;;;;10.10;1.00;;;24.40;53.10;;;;;;5050128;28;20128;-70
2022/07/05 10:43:31;;;;;;;2.22;1.30;;;24.70;52.40;;;;;;5050134;28;20037;-70
2022/07/05 10:45:59;;;;;;;4.47;0.93;;;24.60;52.40;;;;;;5050652;28;20036;-70
2022/07/05 10:48:26;;;;;;;4.43;0.90;;;24.60;52.50;;;;;;5050485;28;20124;-71
2022/07/05 10:50:56;;;;;;;2.17;0.90;;;24.70;53.40;;;;;;5050281;28;20033;-71
2022/07/05 10:53:29;;;;;;;4.55;0.63;;;24.50;52.40;;;;;;5049870;28;20057;-71
2022/07/05 10:56:04;;;;;;;5.10;0.90;;;24.60;52.40;;;;;;5050165;28;20041;-71
2022/07/05 10:58:39;;;;;;;5.65;1.35;;;24.60;53.00;;;;;;5050121;28;20033;-71
2022/07/05 11:01:20;;;;;;;2.50;1.00;;;25.00;52.50;;;;;;5054280;28;20147;-70
2022/07/05 11:03:48;;;;;;;1.90;0.65;;;24.90;52.20;;;;;;5053833;28;20037;-71
2022/07/05 11:06:25;;;;;;;1.23;0.80;;;25.10;52.50;;;;;;5053663;28;20040;-70
2022/07/05 11:09:00;;;;;;;4.88;0.90;;;25.10;51.50;;;;;;5053521;28;20371;-70
2022/07/05 11:11:34;;;;;;;4.00;0.80;;;25.10;51.10;;;;;;5052573;28;20033;-72
2022/07/05 11:14:01;;;;;;;3.90;0.80;;;25.10;50.40;;;;;;5053668;28;20132;-69
2022/07/05 11:16:31;;;;;;;;;;;25.30;50.50;;;;;;5053990;28;20029;-69
2022/07/05 11:19:07;;;;;;;5.80;0.90;;;25.20;50.40;;;;;;5053839;28;20406;-71
2022/07/05 11:21:35;;;;;;;1.80;0.80;;;25.10;50.90;;;;;;5053721;28;20044;-70
2022/07/05 11:24:19;;;;;;;4.57;1.70;;;24.60;51.00;;;;;;5053627;28;20029;-71
2022/07/05 11:26:49;;;;;;;2.10;1.20;;;24.70;51.80;;;;;;5052194;28;20401;-71
2022/07/05 11:29:43;;;;;;;4.00;0.90;;;24.90;51.70;;;;;;5053523;28;20037;-71
2022/07/05 11:32:10;;;;;;;3.72;1.00;;;24.70;51.40;;;;;;5053181;28;20455;-68
2022/07/05 11:34:37;;;;;;;7.10;1.23;;;24.40;52.10;;;;;;5053171;28;20486;-69
2022/07/05 11:37:26;;;;;;;7.20;2.75;;;24.50;53.10;;;;;;5053371;28;20024;-68
2022/07/05 11:40:10;;;;;;;3.85;1.63;;;24.50;52.90;;;;;;5054396;28;20044;-68
2022/07/05 11:42:49;;;;;;;2.05;0.90;;;24.40;53.10;;;;;;5054566;28;20123;-69
2022/07/05 11:45:16;;;;;;;5.55;1.80;;;24.40;53.80;;;;;;5054233;28;20041;-70
2022/07/05 11:47:42;;;;;;;3.50;0.90;;;24.60;53.20;;;;;;5052407;28;20021;-69
2022/07/05 11:50:12;;;;;;;2.28;1.30;;;24.50;52.50;;;;;;5054462;28;20037;-70
2022/07/05 11:52:39;;;;;;;1.95;0.80;;;24.50;51.60;;;;;;5052574;28;20040;-70
2022/07/05 11:55:08;;;;;;;1.08;0.77;;;24.60;51.30;;;;;;5052894;28;20053;-70
2022/07/05 11:57:34;;;;;;;5.47;0.90;;;24.80;51.50;;;;;;5053514;28;20455;-70
2022/07/05 12:00:00;;;;;;;4.35;0.90;;;24.90;50.80;;;;;;5052949;28;20055;-70
2022/07/05 12:02:25;;;;;;;1.35;0.50;;;24.80;50.50;;;;;;5052903;28;20025;-71
2022/07/05 12:04:53;;;;;;;2.95;0.80;;;24.80;49.80;;;;;;5053874;28;20131;-70
2022/07/05 12:07:35;;;;;;;2.42;0.60;;;24.60;49.00;;;;;;5053857;28;20074;-70
2022/07/05 12:12:50;;;;;;;2.63;0.98;;;24.70;50.90;;;;;;5052601;28;20043;-70
2022/07/05 12:15:21;;;;;;;1.88;0.90;;;24.60;51.00;;;;;;5052342;28;20041;-70
2022/07/05 12:17:48;;;;;;;5.88;1.17;;;24.60;51.90;;;;;;5052417;28;20482;-70
2022/07/05 12:20:21;;;;;;;2.22;0.70;;;24.70;51.60;;;;;;5052424;28;20064;-70
2022/07/05 12:22:47;;;;;;;3.03;0.80;;;24.70;51.40;;;;;;5052520;28;20037;-71
2022/07/05 12:25:18;;;;;;;2.70;0.60;;;24.70;51.30;;;;;;5052489;28;20047;-71
2022/07/05 12:27:47;;;;;;;1.08;0.95;;;24.60;51.20;;;;;;5051627;28;20025;-71
2022/07/05 12:30:13;;;;;;;1.85;0.70;;;24.40;51.20;;;;;;5052366;28;20044;-70
2022/07/05 12:33:09;;;;;;;3.38;0.90;;;24.30;51.80;;;;;;5052189;28;20033;-69
2022/07/05 12:35:43;;;;;;;3.50;0.40;;;24.50;51.70;;;;;;5051986;28;20059;-70
2022/07/05 12:38:16;;;;;;;3.28;0.70;;;24.40;51.60;;;;;;5051931;28;20040;-72
2022/07/05 12:40:43;;;;;;;4.10;1.10;;;24.40;51.80;;;;;;5051672;28;20132;-71
2022/07/05 12:43:12;;;;;;;2.58;0.75;;;24.50;51.80;;;;;;5051688;28;20129;-70
2022/07/05 12:45:40;;;;;;;2.58;0.60;;;24.40;51.70;;;;;;5050789;28;20029;-70
2022/07/05 12:48:07;;;;;;;1.73;0.60;;;24.50;52.00;;;;;;5050391;28;20510;-70
2022/07/05 12:50:55;;;;;;;1.88;0.60;;;24.60;51.60;;;;;;5051429;28;20384;-70
2022/07/05 12:59:04;;;;;;;7.53;0.80;;;24.80;51.30;;;;;;5051378;28;20040;-70
2022/07/05 13:01:39;;;;;;;1.42;0.63;;;24.60;50.10;;;;;;5051777;28;20126;-71
2022/07/05 13:04:14;;;;;;;4.95;0.95;;;24.80;50.30;;;;;;5050794;28;20482;-70